sensor_id;sensor_type;location;lat;lon;timestamp;P1;durP1;ratioP1;P2;durP2;ratioP2
52512;SDS011;38422;53.172;6.974;2023-12-28T00:00:07;8.07;;;4.10;;
52512;SDS011;38422;53.172;6.974;2023-12-28T00:02:33;5.57;;;3.13;;
52512;SDS011;38422;53.172;6.974;2023-12-28T00:04:59;6.30;;;2.42;;
52512;SDS011;38422;53.172;6.974;2023-12-28T00:07:25;3.92;;;2.00;;
52512;SDS011;38422;53.172;6.974;2023-12-28T00:09:50;4.28;;;2.50;;
52512;SDS011;38422;53.172;6.974;2023-12-28T00:12:16;4.25;;;2.22;;
52512;SDS011;38422;53.172;6.974;2023-12-28T00:14:42;4.55;;;2.30;;
52512;SDS011;38422;53.172;6.974;2023-12-28T00:17:07;5.00;;;2.28;;
52512;SDS011;38422;53.172;6.974;2023-12-28T00:19:33;7.10;;;2.35;;
52512;SDS011;38422;53.172;6.974;2023-12-28T00:21:58;4.22;;;1.95;;
52512;SDS011;38422;53.172;6.974;2023-12-28T00:24:24;4.53;;;1.88;;
52512;SDS011;38422;53.172;6.974;2023-12-28T00:26:50;4.93;;;2.30;;
52512;SDS011;38422;53.172;6.974;2023-12-28T00:29:15;5.85;;;2.80;;
52512;SDS011;38422;53.172;6.974;2023-12-28T00:31:41;5.57;;;1.90;;
52512;SDS011;38422;53.172;6.974;2023-12-28T00:34:07;4.47;;;2.30;;
52512;SDS011;38422;53.172;6.974;2023-12-28T00:36:32;5.25;;;1.95;;
52512;SDS011;38422;53.172;6.974;2023-12-28T00:38:58;5.80;;;2.30;;
52512;SDS011;38422;53.172;6.974;2023-12-28T00:41:24;4.35;;;2.03;;
52512;SDS011;38422;53.172;6.974;2023-12-28T00:43:49;5.20;;;2.20;;
52512;SDS011;38422;53.172;6.974;2023-12-28T00:46:15;6.28;;;2.22;;
52512;SDS011;38422;53.172;6.974;2023-12-28T00:48:41;5.97;;;2.10;;
52512;SDS011;38422;53.172;6.974;2023-12-28T00:51:07;5.53;;;2.25;;
52512;SDS011;38422;53.172;6.974;2023-12-28T00:53:32;8.55;;;2.65;;
52512;SDS011;38422;53.172;6.974;2023-12-28T00:55:58;5.07;;;2.20;;
52512;SDS011;38422;53.172;6.974;2023-12-28T00:58:24;4.93;;;2.50;;
52512;SDS011;38422;53.172;6.974;2023-12-28T01:00:49;6.40;;;2.50;;
52512;SDS011;38422;53.172;6.974;2023-12-28T01:03:18;4.78;;;2.22;;
52512;SDS011;38422;53.172;6.974;2023-12-28T01:05:45;5.80;;;2.70;;
52512;SDS011;38422;53.172;6.974;2023-12-28T01:08:12;5.78;;;2.10;;
52512;SDS011;38422;53.172;6.974;2023-12-28T01:10:38;7.20;;;2.38;;
52512;SDS011;38422;53.172;6.974;2023-12-28T01:13:04;6.78;;;2.60;;
52512;SDS011;38422;53.172;6.974;2023-12-28T01:15:29;5.40;;;2.22;;
52512;SDS011;38422;53.172;6.974;2023-12-28T01:17:55;5.97;;;2.20;;
52512;SDS011;38422;53.172;6.974;2023-12-28T01:20:21;5.25;;;2.35;;
52512;SDS011;38422;53.172;6.974;2023-12-28T01:22:47;7.28;;;2.85;;
52512;SDS011;38422;53.172;6.974;2023-12-28T01:25:15;8.32;;;2.85;;
52512;SDS011;38422;53.172;6.974;2023-12-28T01:27:41;6.35;;;2.42;;
52512;SDS011;38422;53.172;6.974;2023-12-28T01:30:06;5.57;;;2.17;;
52512;SDS011;38422;53.172;6.974;2023-12-28T01:32:32;12.20;;;2.78;;
52512;SDS011;38422;53.172;6.974;2023-12-28T01:34:58;8.68;;;2.50;;
52512;SDS011;38422;53.172;6.974;2023-12-28T01:37:24;9.65;;;2.70;;
52512;SDS011;38422;53.172;6.974;2023-12-28T01:39:49;6.93;;;2.70;;
52512;SDS011;38422;53.172;6.974;2023-12-28T01:42:15;9.15;;;3.08;;
52512;SDS011;38422;53.172;6.974;2023-12-28T01:44:41;5.80;;;2.72;;
52512;SDS011;38422;53.172;6.974;2023-12-28T01:47:06;9.48;;;2.92;;
52512;SDS011;38422;53.172;6.974;2023-12-28T01:49:33;10.02;;;2.80;;
52512;SDS011;38422;53.172;6.974;2023-12-28T01:52:00;6.43;;;2.45;;
52512;SDS011;38422;53.172;6.974;2023-12-28T01:54:26;11.00;;;3.65;;
52512;SDS011;38422;53.172;6.974;2023-12-28T01:56:52;12.60;;;3.55;;
52512;SDS011;38422;53.172;6.974;2023-12-28T01:59:18;11.32;;;3.13;;
52512;SDS011;38422;53.172;6.974;2023-12-28T02:01:44;12.65;;;3.20;;
52512;SDS011;38422;53.172;6.974;2023-12-28T02:04:11;9.48;;;2.83;;
52512;SDS011;38422;53.172;6.974;2023-12-28T02:06:37;8.97;;;3.10;;
52512;SDS011;38422;53.172;6.974;2023-12-28T02:09:03;6.63;;;3.13;;
52512;SDS011;38422;53.172;6.974;2023-12-28T02:11:29;12.02;;;3.13;;
52512;SDS011;38422;53.172;6.974;2023-12-28T02:13:54;10.07;;;2.50;;
52512;SDS011;38422;53.172;6.974;2023-12-28T02:16:29;7.88;;;2.35;;
52512;SDS011;38422;53.172;6.974;2023-12-28T02:18:59;7.10;;;2.00;;
52512;SDS011;38422;53.172;6.974;2023-12-28T02:21:29;6.60;;;2.20;;
52512;SDS011;38422;53.172;6.974;2023-12-28T02:26:22;5.55;;;2.03;;
52512;SDS011;38422;53.172;6.974;2023-12-28T02:28:47;4.97;;;2.20;;
52512;SDS011;38422;53.172;6.974;2023-12-28T02:31:19;5.95;;;1.80;;
52512;SDS011;38422;53.172;6.974;2023-12-28T02:33:52;7.65;;;2.25;;
52512;SDS011;38422;53.172;6.974;2023-12-28T02:36:23;3.78;;;1.75;;
52512;SDS011;38422;53.172;6.974;2023-12-28T02:38:50;7.70;;;1.95;;
52512;SDS011;38422;53.172;6.974;2023-12-28T02:41:17;4.55;;;1.77;;
52512;SDS011;38422;53.172;6.974;2023-12-28T02:43:44;9.90;;;2.50;;
52512;SDS011;38422;53.172;6.974;2023-12-28T02:48:38;6.30;;;1.90;;
52512;SDS011;38422;53.172;6.974;2023-12-28T02:51:04;8.48;;;2.60;;
52512;SDS011;38422;53.172;6.974;2023-12-28T02:53:30;7.65;;;2.28;;
52512;SDS011;38422;53.172;6.974;2023-12-28T02:55:55;6.22;;;1.95;;
52512;SDS011;38422;53.172;6.974;2023-12-28T02:58:21;7.78;;;1.83;;
52512;SDS011;38422;53.172;6.974;2023-12-28T03:00:47;4.82;;;1.77;;
52512;SDS011;38422;53.172;6.974;2023-12-28T03:03:13;10.63;;;1.70;;
52512;SDS011;38422;53.172;6.974;2023-12-28T03:05:39;8.63;;;1.45;;
52512;SDS011;38422;53.172;6.974;2023-12-28T03:08:06;6.10;;;1.70;;
52512;SDS011;38422;53.172;6.974;2023-12-28T03:10:32;3.58;;;1.50;;
52512;SDS011;38422;53.172;6.974;2023-12-28T03:12:57;5.75;;;1.45;;
52512;SDS011;38422;53.172;6.974;2023-12-28T03:15:23;7.13;;;1.45;;
52512;SDS011;38422;53.172;6.974;2023-12-28T03:17:49;7.00;;;1.48;;
52512;SDS011;38422;53.172;6.974;2023-12-28T03:20:15;7.13;;;1.60;;
52512;SDS011;38422;53.172;6.974;2023-12-28T03:22:40;3.70;;;1.30;;
52512;SDS011;38422;53.172;6.974;2023-12-28T03:25:06;7.00;;;1.42;;
52512;SDS011;38422;53.172;6.974;2023-12-28T03:27:32;7.40;;;1.70;;
52512;SDS011;38422;53.172;6.974;2023-12-28T03:29:58;3.58;;;1.48;;
52512;SDS011;38422;53.172;6.974;2023-12-28T03:32:23;8.10;;;1.60;;
52512;SDS011;38422;53.172;6.974;2023-12-28T03:34:49;4.45;;;1.58;;
52512;SDS011;38422;53.172;6.974;2023-12-28T03:37:15;6.63;;;1.52;;
52512;SDS011;38422;53.172;6.974;2023-12-28T03:39:40;7.22;;;1.45;;
52512;SDS011;38422;53.172;6.974;2023-12-28T03:42:06;4.95;;;1.60;;
52512;SDS011;38422;53.172;6.974;2023-12-28T03:44:32;6.43;;;1.63;;
52512;SDS011;38422;53.172;6.974;2023-12-28T03:46:57;8.23;;;1.60;;
52512;SDS011;38422;53.172;6.974;2023-12-28T03:49:23;4.03;;;1.27;;
52512;SDS011;38422;53.172;6.974;2023-12-28T03:51:49;7.95;;;2.08;;
52512;SDS011;38422;53.172;6.974;2023-12-28T03:54:16;6.13;;;1.65;;
52512;SDS011;38422;53.172;6.974;2023-12-28T03:56:42;7.47;;;1.52;;
52512;SDS011;38422;53.172;6.974;2023-12-28T03:59:08;11.25;;;1.58;;
52512;SDS011;38422;53.172;6.974;2023-12-28T04:01:34;6.97;;;1.70;;
52512;SDS011;38422;53.172;6.974;2023-12-28T04:04:00;5.78;;;1.42;;
52512;SDS011;38422;53.172;6.974;2023-12-28T04:06:26;6.97;;;1.85;;
52512;SDS011;38422;53.172;6.974;2023-12-28T04:08:52;3.50;;;1.15;;
52512;SDS011;38422;53.172;6.974;2023-12-28T04:11:18;8.00;;;1.98;;
52512;SDS011;38422;53.172;6.974;2023-12-28T04:13:44;7.63;;;1.63;;
52512;SDS011;38422;53.172;6.974;2023-12-28T04:16:13;6.22;;;1.27;;
52512;SDS011;38422;53.172;6.974;2023-12-28T04:18:40;5.88;;;1.30;;
52512;SDS011;38422;53.172;6.974;2023-12-28T04:21:11;7.72;;;2.03;;
52512;SDS011;38422;53.172;6.974;2023-12-28T04:23:39;4.93;;;1.30;;
52512;SDS011;38422;53.172;6.974;2023-12-28T04:26:06;9.20;;;1.60;;
52512;SDS011;38422;53.172;6.974;2023-12-28T04:28:31;7.50;;;1.27;;
52512;SDS011;38422;53.172;6.974;2023-12-28T04:31:01;7.93;;;1.65;;
52512;SDS011;38422;53.172;6.974;2023-12-28T04:33:31;3.58;;;1.05;;
52512;SDS011;38422;53.172;6.974;2023-12-28T04:35:57;7.50;;;1.58;;
52512;SDS011;38422;53.172;6.974;2023-12-28T04:38:25;4.70;;;1.33;;
52512;SDS011;38422;53.172;6.974;2023-12-28T04:40:51;6.97;;;1.13;;
52512;SDS011;38422;53.172;6.974;2023-12-28T04:43:16;8.77;;;1.23;;
52512;SDS011;38422;53.172;6.974;2023-12-28T04:45:42;6.20;;;1.30;;
52512;SDS011;38422;53.172;6.974;2023-12-28T04:48:08;8.48;;;1.70;;
52512;SDS011;38422;53.172;6.974;2023-12-28T04:50:33;7.22;;;1.20;;
52512;SDS011;38422;53.172;6.974;2023-12-28T04:52:59;10.07;;;1.38;;
52512;SDS011;38422;53.172;6.974;2023-12-28T04:55:24;4.93;;;1.58;;
52512;SDS011;38422;53.172;6.974;2023-12-28T04:57:50;5.80;;;1.25;;
52512;SDS011;38422;53.172;6.974;2023-12-28T05:00:16;10.75;;;1.70;;
52512;SDS011;38422;53.172;6.974;2023-12-28T05:02:42;8.98;;;1.23;;
52512;SDS011;38422;53.172;6.974;2023-12-28T05:05:07;5.82;;;1.30;;
52512;SDS011;38422;53.172;6.974;2023-12-28T05:10:01;8.68;;;1.42;;
52512;SDS011;38422;53.172;6.974;2023-12-28T05:12:27;6.03;;;1.55;;
52512;SDS011;38422;53.172;6.974;2023-12-28T05:14:53;11.27;;;1.33;;
52512;SDS011;38422;53.172;6.974;2023-12-28T05:17:18;7.03;;;1.10;;
52512;SDS011;38422;53.172;6.974;2023-12-28T05:19:44;8.48;;;1.63;;
52512;SDS011;38422;53.172;6.974;2023-12-28T05:22:09;8.32;;;1.42;;
52512;SDS011;38422;53.172;6.974;2023-12-28T05:24:36;8.32;;;1.40;;
52512;SDS011;38422;53.172;6.974;2023-12-28T05:27:02;7.28;;;1.33;;
52512;SDS011;38422;53.172;6.974;2023-12-28T05:29:28;11.55;;;1.60;;
52512;SDS011;38422;53.172;6.974;2023-12-28T05:31:53;7.47;;;1.40;;
52512;SDS011;38422;53.172;6.974;2023-12-28T05:34:19;12.25;;;1.50;;
52512;SDS011;38422;53.172;6.974;2023-12-28T05:36:45;9.40;;;1.25;;
52512;SDS011;38422;53.172;6.974;2023-12-28T05:39:11;8.88;;;1.20;;
52512;SDS011;38422;53.172;6.974;2023-12-28T05:44:05;4.93;;;1.35;;
52512;SDS011;38422;53.172;6.974;2023-12-28T05:46:31;8.88;;;1.48;;
52512;SDS011;38422;53.172;6.974;2023-12-28T05:48:57;7.75;;;1.25;;
52512;SDS011;38422;53.172;6.974;2023-12-28T05:51:22;8.15;;;1.55;;
52512;SDS011;38422;53.172;6.974;2023-12-28T05:53:48;8.02;;;1.60;;
52512;SDS011;38422;53.172;6.974;2023-12-28T05:56:14;6.03;;;1.00;;
52512;SDS011;38422;53.172;6.974;2023-12-28T05:58:39;8.25;;;1.52;;
52512;SDS011;38422;53.172;6.974;2023-12-28T06:01:06;8.05;;;1.25;;
52512;SDS011;38422;53.172;6.974;2023-12-28T06:03:31;11.55;;;1.70;;
52512;SDS011;38422;53.172;6.974;2023-12-28T06:05:57;11.23;;;1.20;;
52512;SDS011;38422;53.172;6.974;2023-12-28T06:08:23;8.10;;;2.05;;
52512;SDS011;38422;53.172;6.974;2023-12-28T06:10:49;8.32;;;1.58;;
52512;SDS011;38422;53.172;6.974;2023-12-28T06:13:15;5.63;;;1.10;;
52512;SDS011;38422;53.172;6.974;2023-12-28T06:15:40;11.85;;;1.33;;
52512;SDS011;38422;53.172;6.974;2023-12-28T06:18:06;10.23;;;1.50;;
52512;SDS011;38422;53.172;6.974;2023-12-28T06:20:32;6.45;;;1.65;;
52512;SDS011;38422;53.172;6.974;2023-12-28T06:22:58;9.60;;;1.70;;
52512;SDS011;38422;53.172;6.974;2023-12-28T06:25:23;9.77;;;1.45;;
52512;SDS011;38422;53.172;6.974;2023-12-28T06:27:49;7.75;;;1.55;;
52512;SDS011;38422;53.172;6.974;2023-12-28T06:30:15;7.05;;;1.40;;
52512;SDS011;38422;53.172;6.974;2023-12-28T06:32:40;9.27;;;1.17;;
52512;SDS011;38422;53.172;6.974;2023-12-28T06:35:06;9.35;;;1.88;;
52512;SDS011;38422;53.172;6.974;2023-12-28T06:37:32;6.55;;;1.30;;
52512;SDS011;38422;53.172;6.974;2023-12-28T06:39:58;8.25;;;1.17;;
52512;SDS011;38422;53.172;6.974;2023-12-28T06:42:23;10.00;;;1.23;;
52512;SDS011;38422;53.172;6.974;2023-12-28T06:44:49;8.50;;;1.20;;
52512;SDS011;38422;53.172;6.974;2023-12-28T06:47:15;11.65;;;1.17;;
52512;SDS011;38422;53.172;6.974;2023-12-28T06:49:40;12.05;;;1.30;;
52512;SDS011;38422;53.172;6.974;2023-12-28T06:52:06;7.07;;;1.25;;
52512;SDS011;38422;53.172;6.974;2023-12-28T06:54:32;8.45;;;1.33;;
52512;SDS011;38422;53.172;6.974;2023-12-28T06:56:57;6.45;;;1.65;;
52512;SDS011;38422;53.172;6.974;2023-12-28T06:59:23;8.60;;;1.10;;
52512;SDS011;38422;53.172;6.974;2023-12-28T07:01:49;9.00;;;1.08;;
52512;SDS011;38422;53.172;6.974;2023-12-28T07:04:15;6.55;;;1.15;;
52512;SDS011;38422;53.172;6.974;2023-12-28T07:06:40;13.57;;;1.40;;
52512;SDS011;38422;53.172;6.974;2023-12-28T07:09:06;7.85;;;1.42;;
52512;SDS011;38422;53.172;6.974;2023-12-28T07:11:32;8.32;;;1.38;;
52512;SDS011;38422;53.172;6.974;2023-12-28T07:13:57;11.05;;;1.60;;
52512;SDS011;38422;53.172;6.974;2023-12-28T07:16:23;8.25;;;1.17;;
52512;SDS011;38422;53.172;6.974;2023-12-28T07:18:49;10.27;;;1.42;;
52512;SDS011;38422;53.172;6.974;2023-12-28T07:21:15;11.07;;;1.65;;
52512;SDS011;38422;53.172;6.974;2023-12-28T07:23:40;10.02;;;1.50;;
52512;SDS011;38422;53.172;6.974;2023-12-28T07:26:06;10.18;;;1.65;;
52512;SDS011;38422;53.172;6.974;2023-12-28T07:28:32;9.80;;;1.23;;
52512;SDS011;38422;53.172;6.974;2023-12-28T07:30:57;5.20;;;1.05;;
52512;SDS011;38422;53.172;6.974;2023-12-28T07:33:23;10.38;;;1.10;;
52512;SDS011;38422;53.172;6.974;2023-12-28T07:35:49;7.85;;;1.45;;
52512;SDS011;38422;53.172;6.974;2023-12-28T07:38:14;14.70;;;2.03;;
52512;SDS011;38422;53.172;6.974;2023-12-28T07:40:41;8.07;;;1.00;;
52512;SDS011;38422;53.172;6.974;2023-12-28T07:43:06;8.60;;;1.35;;
52512;SDS011;38422;53.172;6.974;2023-12-28T07:45:32;7.88;;;1.88;;
52512;SDS011;38422;53.172;6.974;2023-12-28T07:48:01;9.25;;;1.15;;
52512;SDS011;38422;53.172;6.974;2023-12-28T07:50:27;6.55;;;1.27;;
52512;SDS011;38422;53.172;6.974;2023-12-28T07:52:53;6.78;;;1.17;;
52512;SDS011;38422;53.172;6.974;2023-12-28T07:55:18;7.15;;;0.98;;
52512;SDS011;38422;53.172;6.974;2023-12-28T07:57:44;4.43;;;1.20;;
52512;SDS011;38422;53.172;6.974;2023-12-28T08:00:10;14.38;;;1.90;;
52512;SDS011;38422;53.172;6.974;2023-12-28T08:02:36;6.45;;;1.35;;
52512;SDS011;38422;53.172;6.974;2023-12-28T08:05:03;3.78;;;1.05;;
52512;SDS011;38422;53.172;6.974;2023-12-28T08:07:29;9.98;;;1.70;;
52512;SDS011;38422;53.172;6.974;2023-12-28T08:09:55;13.60;;;1.45;;
52512;SDS011;38422;53.172;6.974;2023-12-28T08:12:20;6.60;;;1.38;;
52512;SDS011;38422;53.172;6.974;2023-12-28T08:14:46;5.80;;;1.13;;
52512;SDS011;38422;53.172;6.974;2023-12-28T08:17:12;9.45;;;1.90;;
52512;SDS011;38422;53.172;6.974;2023-12-28T08:19:38;9.43;;;1.23;;
52512;SDS011;38422;53.172;6.974;2023-12-28T08:22:03;9.45;;;1.80;;
52512;SDS011;38422;53.172;6.974;2023-12-28T08:24:29;10.07;;;1.35;;
52512;SDS011;38422;53.172;6.974;2023-12-28T08:26:55;7.80;;;2.20;;
52512;SDS011;38422;53.172;6.974;2023-12-28T08:29:25;10.68;;;1.48;;
52512;SDS011;38422;53.172;6.974;2023-12-28T08:31:51;10.07;;;1.37;;
52512;SDS011;38422;53.172;6.974;2023-12-28T08:34:17;10.38;;;1.75;;
52512;SDS011;38422;53.172;6.974;2023-12-28T08:36:43;11.00;;;1.77;;
52512;SDS011;38422;53.172;6.974;2023-12-28T08:39:08;10.20;;;1.20;;
52512;SDS011;38422;53.172;6.974;2023-12-28T08:41:34;5.90;;;1.08;;
52512;SDS011;38422;53.172;6.974;2023-12-28T08:44:00;9.27;;;1.27;;
52512;SDS011;38422;53.172;6.974;2023-12-28T08:46:25;13.20;;;1.83;;
52512;SDS011;38422;53.172;6.974;2023-12-28T08:48:51;8.93;;;1.58;;
52512;SDS011;38422;53.172;6.974;2023-12-28T08:51:17;8.27;;;1.13;;
52512;SDS011;38422;53.172;6.974;2023-12-28T08:53:42;11.18;;;1.65;;
52512;SDS011;38422;53.172;6.974;2023-12-28T08:56:19;12.95;;;1.67;;
52512;SDS011;38422;53.172;6.974;2023-12-28T08:58:46;8.25;;;1.33;;
52512;SDS011;38422;53.172;6.974;2023-12-28T09:01:22;13.73;;;2.28;;
52512;SDS011;38422;53.172;6.974;2023-12-28T09:03:50;7.15;;;1.60;;
52512;SDS011;38422;53.172;6.974;2023-12-28T09:06:17;8.73;;;1.48;;
52512;SDS011;38422;53.172;6.974;2023-12-28T09:08:43;15.70;;;1.83;;
52512;SDS011;38422;53.172;6.974;2023-12-28T09:11:10;11.45;;;1.77;;
52512;SDS011;38422;53.172;6.974;2023-12-28T09:13:39;10.20;;;1.58;;
52512;SDS011;38422;53.172;6.974;2023-12-28T09:18:41;14.90;;;1.55;;
52512;SDS011;38422;53.172;6.974;2023-12-28T09:21:08;9.43;;;2.03;;
52512;SDS011;38422;53.172;6.974;2023-12-28T09:23:34;15.10;;;1.50;;
52512;SDS011;38422;53.172;6.974;2023-12-28T09:26:04;5.80;;;0.95;;
52512;SDS011;38422;53.172;6.974;2023-12-28T09:28:31;8.07;;;1.13;;
52512;SDS011;38422;53.172;6.974;2023-12-28T09:30:57;12.85;;;1.60;;
52512;SDS011;38422;53.172;6.974;2023-12-28T09:33:23;9.88;;;1.73;;
52512;SDS011;38422;53.172;6.974;2023-12-28T09:35:49;15.18;;;1.50;;
52512;SDS011;38422;53.172;6.974;2023-12-28T09:38:15;8.75;;;1.90;;
52512;SDS011;38422;53.172;6.974;2023-12-28T09:40:41;10.35;;;1.50;;
52512;SDS011;38422;53.172;6.974;2023-12-28T09:46:06;12.43;;;1.55;;
52512;SDS011;38422;53.172;6.974;2023-12-28T09:48:32;7.40;;;1.20;;
52512;SDS011;38422;53.172;6.974;2023-12-28T09:50:59;5.53;;;1.00;;
52512;SDS011;38422;53.172;6.974;2023-12-28T09:53:25;11.43;;;1.67;;
52512;SDS011;38422;53.172;6.974;2023-12-28T09:55:52;14.13;;;1.90;;
52512;SDS011;38422;53.172;6.974;2023-12-28T09:58:18;8.68;;;1.73;;
52512;SDS011;38422;53.172;6.974;2023-12-28T10:00:45;13.70;;;1.70;;
52512;SDS011;38422;53.172;6.974;2023-12-28T10:03:12;5.90;;;1.00;;
52512;SDS011;38422;53.172;6.974;2023-12-28T10:05:42;7.43;;;1.45;;
52512;SDS011;38422;53.172;6.974;2023-12-28T10:08:12;14.23;;;1.67;;
52512;SDS011;38422;53.172;6.974;2023-12-28T10:10:39;15.10;;;1.50;;
52512;SDS011;38422;53.172;6.974;2023-12-28T10:13:06;8.77;;;1.73;;
52512;SDS011;38422;53.172;6.974;2023-12-28T10:15:32;7.85;;;1.40;;
52512;SDS011;38422;53.172;6.974;2023-12-28T10:17:59;11.82;;;2.05;;
52512;SDS011;38422;53.172;6.974;2023-12-28T10:20:28;14.95;;;1.67;;
52512;SDS011;38422;53.172;6.974;2023-12-28T10:22:54;8.75;;;1.10;;
52512;SDS011;38422;53.172;6.974;2023-12-28T10:25:20;12.55;;;1.58;;
52512;SDS011;38422;53.172;6.974;2023-12-28T10:27:49;12.43;;;1.52;;
52512;SDS011;38422;53.172;6.974;2023-12-28T10:30:16;9.13;;;1.35;;
52512;SDS011;38422;53.172;6.974;2023-12-28T10:32:41;11.93;;;1.60;;
52512;SDS011;38422;53.172;6.974;2023-12-28T10:35:07;11.93;;;1.75;;
52512;SDS011;38422;53.172;6.974;2023-12-28T10:37:33;9.38;;;1.70;;
52512;SDS011;38422;53.172;6.974;2023-12-28T10:40:04;7.40;;;1.52;;
52512;SDS011;38422;53.172;6.974;2023-12-28T10:42:42;12.70;;;1.33;;
52512;SDS011;38422;53.172;6.974;2023-12-28T10:45:28;14.23;;;1.42;;
52512;SDS011;38422;53.172;6.974;2023-12-28T10:50:22;11.23;;;1.88;;
52512;SDS011;38422;53.172;6.974;2023-12-28T10:52:53;13.63;;;2.05;;
52512;SDS011;38422;53.172;6.974;2023-12-28T10:55:40;9.95;;;2.00;;
52512;SDS011;38422;53.172;6.974;2023-12-28T10:58:17;10.30;;;1.75;;
52512;SDS011;38422;53.172;6.974;2023-12-28T11:00:56;6.50;;;0.95;;
52512;SDS011;38422;53.172;6.974;2023-12-28T11:05:55;11.10;;;1.40;;
52512;SDS011;38422;53.172;6.974;2023-12-28T11:08:22;8.85;;;1.48;;
52512;SDS011;38422;53.172;6.974;2023-12-28T11:10:50;8.38;;;1.88;;
52512;SDS011;38422;53.172;6.974;2023-12-28T11:13:17;11.95;;;1.42;;
52512;SDS011;38422;53.172;6.974;2023-12-28T11:15:46;11.45;;;1.92;;
52512;SDS011;38422;53.172;6.974;2023-12-28T11:18:13;8.30;;;1.25;;
52512;SDS011;38422;53.172;6.974;2023-12-28T11:20:41;11.57;;;1.67;;
52512;SDS011;38422;53.172;6.974;2023-12-28T11:23:08;16.40;;;2.22;;
52512;SDS011;38422;53.172;6.974;2023-12-28T11:25:34;5.35;;;1.52;;
52512;SDS011;38422;53.172;6.974;2023-12-28T11:28:08;7.38;;;1.20;;
52512;SDS011;38422;53.172;6.974;2023-12-28T11:30:34;9.88;;;1.55;;
52512;SDS011;38422;53.172;6.974;2023-12-28T11:33:01;7.95;;;1.27;;
52512;SDS011;38422;53.172;6.974;2023-12-28T11:35:40;10.82;;;1.48;;
52512;SDS011;38422;53.172;6.974;2023-12-28T11:38:06;15.20;;;1.85;;
52512;SDS011;38422;53.172;6.974;2023-12-28T11:40:40;10.68;;;1.65;;
52512;SDS011;38422;53.172;6.974;2023-12-28T11:43:23;5.60;;;1.00;;
52512;SDS011;38422;53.172;6.974;2023-12-28T11:45:54;10.48;;;1.50;;
52512;SDS011;38422;53.172;6.974;2023-12-28T11:48:24;12.65;;;1.58;;
52512;SDS011;38422;53.172;6.974;2023-12-28T11:50:55;14.40;;;2.05;;
52512;SDS011;38422;53.172;6.974;2023-12-28T11:53:23;11.70;;;1.60;;
52512;SDS011;38422;53.172;6.974;2023-12-28T11:55:50;9.23;;;1.40;;
52512;SDS011;38422;53.172;6.974;2023-12-28T11:58:16;7.75;;;1.50;;
52512;SDS011;38422;53.172;6.974;2023-12-28T12:00:43;9.80;;;1.30;;
52512;SDS011;38422;53.172;6.974;2023-12-28T12:03:12;10.30;;;1.45;;
52512;SDS011;38422;53.172;6.974;2023-12-28T12:05:38;9.30;;;1.23;;
52512;SDS011;38422;53.172;6.974;2023-12-28T12:08:08;10.57;;;1.33;;
52512;SDS011;38422;53.172;6.974;2023-12-28T12:10:36;10.25;;;1.40;;
52512;SDS011;38422;53.172;6.974;2023-12-28T12:13:02;9.40;;;1.23;;
52512;SDS011;38422;53.172;6.974;2023-12-28T12:15:29;14.02;;;2.45;;
52512;SDS011;38422;53.172;6.974;2023-12-28T12:17:55;5.07;;;1.00;;
52512;SDS011;38422;53.172;6.974;2023-12-28T12:20:22;10.95;;;1.67;;
52512;SDS011;38422;53.172;6.974;2023-12-28T12:25:51;7.50;;;1.40;;
52512;SDS011;38422;53.172;6.974;2023-12-28T12:28:17;6.85;;;1.02;;
52512;SDS011;38422;53.172;6.974;2023-12-28T12:33:52;12.35;;;1.90;;
52512;SDS011;38422;53.172;6.974;2023-12-28T12:36:18;12.30;;;2.05;;
52512;SDS011;38422;53.172;6.974;2023-12-28T12:38:44;5.55;;;1.58;;
52512;SDS011;38422;53.172;6.974;2023-12-28T12:41:10;11.30;;;1.30;;
52512;SDS011;38422;53.172;6.974;2023-12-28T12:43:40;11.52;;;1.13;;
52512;SDS011;38422;53.172;6.974;2023-12-28T12:46:06;11.43;;;1.40;;
52512;SDS011;38422;53.172;6.974;2023-12-28T12:48:32;5.32;;;1.40;;
52512;SDS011;38422;53.172;6.974;2023-12-28T12:51:03;14.70;;;2.63;;
52512;SDS011;38422;53.172;6.974;2023-12-28T12:53:35;14.25;;;1.90;;
52512;SDS011;38422;53.172;6.974;2023-12-28T12:56:04;13.40;;;2.13;;
52512;SDS011;38422;53.172;6.974;2023-12-28T12:58:37;6.75;;;1.17;;
52512;SDS011;38422;53.172;6.974;2023-12-28T13:01:02;8.00;;;1.02;;
52512;SDS011;38422;53.172;6.974;2023-12-28T13:03:28;7.03;;;1.33;;
52512;SDS011;38422;53.172;6.974;2023-12-28T13:05:55;10.30;;;1.63;;
52512;SDS011;38422;53.172;6.974;2023-12-28T13:08:21;12.85;;;1.67;;
52512;SDS011;38422;53.172;6.974;2023-12-28T13:10:47;14.77;;;1.95;;
52512;SDS011;38422;53.172;6.974;2023-12-28T13:13:14;21.33;;;1.80;;
52512;SDS011;38422;53.172;6.974;2023-12-28T13:15:46;9.70;;;2.05;;
52512;SDS011;38422;53.172;6.974;2023-12-28T13:35:46;9.02;;;1.58;;
52512;SDS011;38422;53.172;6.974;2023-12-28T13:41:52;9.57;;;1.35;;
52512;SDS011;38422;53.172;6.974;2023-12-28T13:44:19;5.80;;;1.02;;
52512;SDS011;38422;53.172;6.974;2023-12-28T13:46:45;9.23;;;1.63;;
52512;SDS011;38422;53.172;6.974;2023-12-28T13:49:11;8.27;;;1.88;;
52512;SDS011;38422;53.172;6.974;2023-12-28T13:51:37;8.13;;;1.77;;
52512;SDS011;38422;53.172;6.974;2023-12-28T13:54:03;11.55;;;1.40;;
52512;SDS011;38422;53.172;6.974;2023-12-28T13:56:28;6.45;;;1.25;;
52512;SDS011;38422;53.172;6.974;2023-12-28T13:58:54;10.02;;;1.35;;
52512;SDS011;38422;53.172;6.974;2023-12-28T14:01:20;15.70;;;1.58;;
52512;SDS011;38422;53.172;6.974;2023-12-28T14:03:46;12.40;;;2.00;;
52512;SDS011;38422;53.172;6.974;2023-12-28T14:06:14;14.70;;;1.60;;
52512;SDS011;38422;53.172;6.974;2023-12-28T14:08:39;10.55;;;1.60;;
52512;SDS011;38422;53.172;6.974;2023-12-28T14:11:05;8.38;;;1.88;;
52512;SDS011;38422;53.172;6.974;2023-12-28T14:13:30;12.05;;;1.90;;
52512;SDS011;38422;53.172;6.974;2023-12-28T14:15:56;15.05;;;1.35;;
52512;SDS011;38422;53.172;6.974;2023-12-28T14:18:22;12.90;;;1.52;;
52512;SDS011;38422;53.172;6.974;2023-12-28T14:20:48;12.63;;;1.65;;
52512;SDS011;38422;53.172;6.974;2023-12-28T14:23:13;10.48;;;1.52;;
52512;SDS011;38422;53.172;6.974;2023-12-28T14:25:40;12.45;;;2.75;;
52512;SDS011;38422;53.172;6.974;2023-12-28T14:28:06;11.32;;;1.40;;
52512;SDS011;38422;53.172;6.974;2023-12-28T14:30:32;10.40;;;1.45;;
52512;SDS011;38422;53.172;6.974;2023-12-28T14:32:58;10.07;;;1.25;;
52512;SDS011;38422;53.172;6.974;2023-12-28T14:35:24;9.77;;;1.38;;
52512;SDS011;38422;53.172;6.974;2023-12-28T14:37:50;7.28;;;1.63;;
52512;SDS011;38422;53.172;6.974;2023-12-28T14:40:16;9.73;;;1.55;;
52512;SDS011;38422;53.172;6.974;2023-12-28T14:42:41;12.32;;;2.17;;
52512;SDS011;38422;53.172;6.974;2023-12-28T14:45:07;9.63;;;2.53;;
52512;SDS011;38422;53.172;6.974;2023-12-28T14:47:33;9.45;;;1.65;;
52512;SDS011;38422;53.172;6.974;2023-12-28T14:49:59;11.20;;;1.73;;
52512;SDS011;38422;53.172;6.974;2023-12-28T14:52:25;11.35;;;1.83;;
52512;SDS011;38422;53.172;6.974;2023-12-28T14:54:51;6.57;;;1.02;;
52512;SDS011;38422;53.172;6.974;2023-12-28T14:57:19;7.68;;;1.60;;
52512;SDS011;38422;53.172;6.974;2023-12-28T14:59:45;16.75;;;1.90;;
52512;SDS011;38422;53.172;6.974;2023-12-28T15:02:11;6.63;;;1.75;;
52512;SDS011;38422;53.172;6.974;2023-12-28T15:04:36;9.18;;;1.30;;
52512;SDS011;38422;53.172;6.974;2023-12-28T15:07:03;15.23;;;2.65;;
52512;SDS011;38422;53.172;6.974;2023-12-28T15:09:29;9.73;;;1.15;;
52512;SDS011;38422;53.172;6.974;2023-12-28T15:11:55;12.70;;;1.92;;
52512;SDS011;38422;53.172;6.974;2023-12-28T15:14:21;10.88;;;1.27;;
52512;SDS011;38422;53.172;6.974;2023-12-28T15:16:48;8.20;;;1.60;;
52512;SDS011;38422;53.172;6.974;2023-12-28T15:19:14;10.48;;;1.50;;
52512;SDS011;38422;53.172;6.974;2023-12-28T15:21:40;10.70;;;1.60;;
52512;SDS011;38422;53.172;6.974;2023-12-28T15:24:06;14.07;;;1.23;;
52512;SDS011;38422;53.172;6.974;2023-12-28T15:26:32;18.63;;;2.03;;